sensor_id;sensor_type;location;lat;lon;timestamp;pressure;altitude;pressure_sealevel;temperature;humidity
81005;BME280;70472;47.592;17.640;2024-03-17T00:00:15;100135.16;;;10.04;81.05
81005;BME280;70472;47.592;17.640;2024-03-17T00:00:46;100134.31;;;10.03;81.25
81005;BME280;70472;47.592;17.640;2024-03-17T00:01:17;100133.31;;;10.12;81.08
81005;BME280;70472;47.592;17.640;2024-03-17T00:01:49;100138.00;;;10.10;81.47
81005;BME280;70472;47.592;17.640;2024-03-17T00:02:20;100139.16;;;10.08;81.39
81005;BME280;70472;47.592;17.640;2024-03-17T00:02:51;100139.81;;;10.02;81.54
81005;BME280;70472;47.592;17.640;2024-03-17T00:03:23;100132.47;;;10.04;81.95
81005;BME280;70472;47.592;17.640;2024-03-17T00:03:54;100139.66;;;10.03;81.78
81005;BME280;70472;47.592;17.640;2024-03-17T00:04:25;100137.31;;;10.00;82.09
81005;BME280;70472;47.592;17.640;2024-03-17T00:04:56;100137.66;;;9.97;82.05
81005;BME280;70472;47.592;17.640;2024-03-17T00:05:28;100143.38;;;10.02;82.10
81005;BME280;70472;47.592;17.640;2024-03-17T00:06:01;100143.50;;;10.01;82.40
81005;BME280;70472;47.592;17.640;2024-03-17T00:06:32;100133.97;;;9.98;82.46
81005;BME280;70472;47.592;17.640;2024-03-17T00:07:04;100138.66;;;9.96;82.53
81005;BME280;70472;47.592;17.640;2024-03-17T00:07:35;100140.97;;;9.91;81.71
81005;BME280;70472;47.592;17.640;2024-03-17T00:08:06;100143.31;;;9.94;82.27
81005;BME280;70472;47.592;17.640;2024-03-17T00:08:38;100138.13;;;10.01;81.81
81005;BME280;70472;47.592;17.640;2024-03-17T00:09:09;100138.66;;;10.04;81.87
81005;BME280;70472;47.592;17.640;2024-03-17T00:09:41;100141.84;;;10.08;82.21
81005;BME280;70472;47.592;17.640;2024-03-17T00:10:13;100138.31;;;10.07;81.98
81005;BME280;70472;47.592;17.640;2024-03-17T00:10:44;100143.38;;;10.10;81.89
81005;BME280;70472;47.592;17.640;2024-03-17T00:11:23;100141.84;;;10.08;82.01
81005;BME280;70472;47.592;17.640;2024-03-17T00:11:54;100143.72;;;10.15;81.88
81005;BME280;70472;47.592;17.640;2024-03-17T00:12:25;100143.69;;;10.07;81.76
81005;BME280;70472;47.592;17.640;2024-03-17T00:12:57;100138.66;;;10.04;82.11
81005;BME280;70472;47.592;17.640;2024-03-17T00:13:28;100143.38;;;10.02;81.84
81005;BME280;70472;47.592;17.640;2024-03-17T00:14:00;100149.88;;;10.08;81.77
81005;BME280;70472;47.592;17.640;2024-03-17T00:14:31;100146.22;;;10.09;81.80
81005;BME280;70472;47.592;17.640;2024-03-17T00:15:04;100141.69;;;10.09;82.01
81005;BME280;70472;47.592;17.640;2024-03-17T00:15:36;100147.38;;;10.06;81.76
81005;BME280;70472;47.592;17.640;2024-03-17T00:16:07;100152.44;;;10.09;82.02
81005;BME280;70472;47.592;17.640;2024-03-17T00:16:38;100145.69;;;10.05;82.34
81005;BME280;70472;47.592;17.640;2024-03-17T00:17:10;100148.38;;;10.05;82.71
81005;BME280;70472;47.592;17.640;2024-03-17T00:17:41;100152.72;;;10.06;82.68
81005;BME280;70472;47.592;17.640;2024-03-17T00:18:12;100152.09;;;10.12;82.21
81005;BME280;70472;47.592;17.640;2024-03-17T00:18:47;100149.88;;;10.08;82.05
81005;BME280;70472;47.592;17.640;2024-03-17T00:19:18;100153.75;;;10.13;81.84
81005;BME280;70472;47.592;17.640;2024-03-17T00:19:50;100153.56;;;10.07;81.82
81005;BME280;70472;47.592;17.640;2024-03-17T00:20:21;100158.44;;;10.03;81.87
81005;BME280;70472;47.592;17.640;2024-03-17T00:20:52;100152.53;;;10.00;81.89
81005;BME280;70472;47.592;17.640;2024-03-17T00:21:23;100150.53;;;10.02;82.16
81005;BME280;70472;47.592;17.640;2024-03-17T00:21:55;100159.09;;;10.05;81.87
81005;BME280;70472;47.592;17.640;2024-03-17T00:22:26;100157.25;;;10.06;82.32
81005;BME280;70472;47.592;17.640;2024-03-17T00:22:57;100155.78;;;10.11;82.23
81005;BME280;70472;47.592;17.640;2024-03-17T00:23:29;100162.81;;;10.12;82.43
81005;BME280;70472;47.592;17.640;2024-03-17T00:24:00;100156.75;;;10.02;82.73
81005;BME280;70472;47.592;17.640;2024-03-17T00:24:31;100159.44;;;10.02;82.55
81005;BME280;70472;47.592;17.640;2024-03-17T00:25:03;100159.44;;;10.02;82.62
81005;BME280;70472;47.592;17.640;2024-03-17T00:25:35;100158.94;;;10.07;82.61
81005;BME280;70472;47.592;17.640;2024-03-17T00:26:07;100161.78;;;10.13;82.02
81005;BME280;70472;47.592;17.640;2024-03-17T00:26:38;100165.00;;;10.17;82.34
81005;BME280;70472;47.592;17.640;2024-03-17T00:27:10;100164.47;;;10.13;82.59
81005;BME280;70472;47.592;17.640;2024-03-17T00:27:41;100163.28;;;10.08;82.55
81005;BME280;70472;47.592;17.640;2024-03-17T00:28:13;100165.13;;;10.07;82.53
81005;BME280;70472;47.592;17.640;2024-03-17T00:28:44;100163.81;;;10.11;82.01
81005;BME280;70472;47.592;17.640;2024-03-17T00:29:15;100163.50;;;10.14;82.11
81005;BME280;70472;47.592;17.640;2024-03-17T00:29:47;100157.13;;;10.15;82.27
81005;BME280;70472;47.592;17.640;2024-03-17T00:30:18;100162.50;;;10.15;82.61
81005;BME280;70472;47.592;17.640;2024-03-17T00:30:49;100164.69;;;10.20;82.56
81005;BME280;70472;47.592;17.640;2024-03-17T00:31:21;100163.69;;;10.21;81.86
81005;BME280;70472;47.592;17.640;2024-03-17T00:31:52;100161.00;;;10.21;82.31
81005;BME280;70472;47.592;17.640;2024-03-17T00:32:23;100167.19;;;10.22;82.71
81005;BME280;70472;47.592;17.640;2024-03-17T00:32:54;100172.25;;;10.25;82.66
81005;BME280;70472;47.592;17.640;2024-03-17T00:33:26;100171.25;;;10.26;82.64
81005;BME280;70472;47.592;17.640;2024-03-17T00:33:57;100166.75;;;10.26;82.73
81005;BME280;70472;47.592;17.640;2024-03-17T00:34:28;100172.25;;;10.25;82.52
81005;BME280;70472;47.592;17.640;2024-03-17T00:35:00;100171.94;;;10.28;81.83
81005;BME280;70472;47.592;17.640;2024-03-17T00:35:31;100168.78;;;10.32;81.86
81005;BME280;70472;47.592;17.640;2024-03-17T00:36:02;100174.63;;;10.36;81.81
81005;BME280;70472;47.592;17.640;2024-03-17T00:36:34;100173.63;;;10.37;81.99
81005;BME280;70472;47.592;17.640;2024-03-17T00:37:05;100174.31;;;10.39;81.57
81005;BME280;70472;47.592;17.640;2024-03-17T00:37:36;100167.28;;;10.38;81.94
81005;BME280;70472;47.592;17.640;2024-03-17T00:38:08;100169.97;;;10.38;82.33
81005;BME280;70472;47.592;17.640;2024-03-17T00:38:39;100174.31;;;10.39;81.50
81005;BME280;70472;47.592;17.640;2024-03-17T00:39:10;100170.63;;;10.40;81.72
81005;BME280;70472;47.592;17.640;2024-03-17T00:39:42;100177.66;;;10.41;81.78
81005;BME280;70472;47.592;17.640;2024-03-17T00:40:13;100171.16;;;10.43;81.58
81005;BME280;70472;47.592;17.640;2024-03-17T00:40:44;100175.50;;;10.45;81.33
81005;BME280;70472;47.592;17.640;2024-03-17T00:41:16;100176.34;;;10.45;81.18
81005;BME280;70472;47.592;17.640;2024-03-17T00:41:47;100180.53;;;10.48;80.84
81005;BME280;70472;47.592;17.640;2024-03-17T00:42:18;100169.63;;;10.49;81.00
81005;BME280;70472;47.592;17.640;2024-03-17T00:42:51;100172.66;;;10.46;81.10
81005;BME280;70472;47.592;17.640;2024-03-17T00:43:22;100174.50;;;10.46;81.22
81005;BME280;70472;47.592;17.640;2024-03-17T00:43:54;100179.53;;;10.49;81.35
81005;BME280;70472;47.592;17.640;2024-03-17T00:44:26;100173.00;;;10.51;80.70
81005;BME280;70472;47.592;17.640;2024-03-17T00:44:57;100172.00;;;10.52;80.73
81005;BME280;70472;47.592;17.640;2024-03-17T00:45:29;100169.97;;;10.54;80.38
81005;BME280;70472;47.592;17.640;2024-03-17T00:46:00;100171.66;;;10.55;80.98
81005;BME280;70472;47.592;17.640;2024-03-17T00:46:31;100171.34;;;10.58;80.35
81005;BME280;70472;47.592;17.640;2024-03-17T00:47:03;100178.19;;;10.61;80.39
81005;BME280;70472;47.592;17.640;2024-03-17T00:47:34;100176.38;;;10.61;80.43
81005;BME280;70472;47.592;17.640;2024-03-17T00:48:06;100176.38;;;10.61;80.29
81005;BME280;70472;47.592;17.640;2024-03-17T00:48:37;100178.19;;;10.61;80.53
81005;BME280;70472;47.592;17.640;2024-03-17T00:49:09;100172.84;;;10.61;80.42
81005;BME280;70472;47.592;17.640;2024-03-17T00:49:41;100171.03;;;10.61;80.68
81005;BME280;70472;47.592;17.640;2024-03-17T00:50:12;100180.03;;;10.60;81.22
81005;BME280;70472;47.592;17.640;2024-03-17T00:50:44;100176.38;;;10.61;80.90
81005;BME280;70472;47.592;17.640;2024-03-17T00:51:17;100172.69;;;10.62;80.37
81005;BME280;70472;47.592;17.640;2024-03-17T00:51:48;100173.69;;;10.61;80.37
81005;BME280;70472;47.592;17.640;2024-03-17T00:52:19;100176.03;;;10.64;80.24
81005;BME280;70472;47.592;17.640;2024-03-17T00:52:51;100178.53;;;10.66;80.17
81005;BME280;70472;47.592;17.640;2024-03-17T00:53:22;100178.41;;;10.67;79.93
81005;BME280;70472;47.592;17.640;2024-03-17T00:53:54;100183.41;;;10.70;79.76
81005;BME280;70472;47.592;17.640;2024-03-17T00:54:25;100185.09;;;10.72;79.62
81005;BME280;70472;47.592;17.640;2024-03-17T00:54:56;100174.72;;;10.68;79.61
81005;BME280;70472;47.592;17.640;2024-03-17T00:55:28;100181.41;;;10.73;79.74
81005;BME280;70472;47.592;17.640;2024-03-17T00:55:59;100185.78;;;10.74;79.75
81005;BME280;70472;47.592;17.640;2024-03-17T00:56:30;100186.78;;;10.73;79.87
81005;BME280;70472;47.592;17.640;2024-03-17T00:57:02;100174.38;;;10.72;79.74
81005;BME280;70472;47.592;17.640;2024-03-17T00:57:33;100172.03;;;10.77;79.55
81005;BME280;70472;47.592;17.640;2024-03-17T00:58:05;100179.06;;;10.78;79.11
81005;BME280;70472;47.592;17.640;2024-03-17T00:58:36;100171.19;;;10.76;79.77
81005;BME280;70472;47.592;17.640;2024-03-17T00:59:07;100180.06;;;10.77;79.67
81005;BME280;70472;47.592;17.640;2024-03-17T00:59:39;100173.69;;;10.78;78.97
81005;BME280;70472;47.592;17.640;2024-03-17T01:00:11;100172.03;;;10.77;79.05
81005;BME280;70472;47.592;17.640;2024-03-17T01:00:42;100178.06;;;10.79;78.77
81005;BME280;70472;47.592;17.640;2024-03-17T01:01:13;100175.38;;;10.79;78.69
81005;BME280;70472;47.592;17.640;2024-03-17T01:01:45;100175.53;;;10.77;78.59
81005;BME280;70472;47.592;17.640;2024-03-17T01:02:16;100172.69;;;10.79;79.00
81005;BME280;70472;47.592;17.640;2024-03-17T01:02:47;100175.22;;;10.80;79.33
81005;BME280;70472;47.592;17.640;2024-03-17T01:03:19;100174.53;;;10.78;79.00
81005;BME280;70472;47.592;17.640;2024-03-17T01:03:51;100172.88;;;10.77;78.83
81005;BME280;70472;47.592;17.640;2024-03-17T01:04:22;100171.00;;;10.78;78.60
81005;BME280;70472;47.592;17.640;2024-03-17T01:04:54;100180.75;;;10.79;78.78
81005;BME280;70472;47.592;17.640;2024-03-17T01:05:25;100176.56;;;10.76;78.90
81005;BME280;70472;47.592;17.640;2024-03-17T01:05:57;100184.09;;;10.73;79.28
81005;BME280;70472;47.592;17.640;2024-03-17T01:06:28;100185.78;;;10.74;79.18
81005;BME280;70472;47.592;17.640;2024-03-17T01:07:00;100177.75;;;10.74;78.67
81005;BME280;70472;47.592;17.640;2024-03-17T01:07:33;100181.25;;;10.74;78.74
81005;BME280;70472;47.592;17.640;2024-03-17T01:08:04;100179.41;;;10.75;78.40
81005;BME280;70472;47.592;17.640;2024-03-17T01:08:37;100171.19;;;10.76;78.49
81005;BME280;70472;47.592;17.640;2024-03-17T01:09:08;100176.56;;;10.76;78.91
81005;BME280;70472;47.592;17.640;2024-03-17T01:09:40;100168.16;;;10.71;78.86
81005;BME280;70472;47.592;17.640;2024-03-17T01:10:12;100164.81;;;10.69;78.75
81005;BME280;70472;47.592;17.640;2024-03-17T01:10:44;100169.00;;;10.72;78.76
81005;BME280;70472;47.592;17.640;2024-03-17T01:11:16;100165.31;;;10.73;78.66
81005;BME280;70472;47.592;17.640;2024-03-17T01:11:47;100176.22;;;10.71;78.51
81005;BME280;70472;47.592;17.640;2024-03-17T01:12:18;100171.69;;;10.72;78.74
81005;BME280;70472;47.592;17.640;2024-03-17T01:12:50;100171.50;;;10.73;78.53
81005;BME280;70472;47.592;17.640;2024-03-17T01:13:21;100171.38;;;10.75;78.42
81005;BME280;70472;47.592;17.640;2024-03-17T01:13:53;100163.31;;;10.75;78.64
81005;BME280;70472;47.592;17.640;2024-03-17T01:14:24;100174.06;;;10.75;78.28
81005;BME280;70472;47.592;17.640;2024-03-17T01:14:56;100175.06;;;10.74;78.67
81005;BME280;70472;47.592;17.640;2024-03-17T01:15:28;100175.72;;;10.76;79.05
81005;BME280;70472;47.592;17.640;2024-03-17T01:15:59;100174.72;;;10.77;78.41
81005;BME280;70472;47.592;17.640;2024-03-17T01:16:30;100178.41;;;10.76;78.40
81005;BME280;70472;47.592;17.640;2024-03-17T01:17:02;100173.34;;;10.73;78.40
81005;BME280;70472;47.592;17.640;2024-03-17T01:17:33;100183.78;;;10.76;78.52
81005;BME280;70472;47.592;17.640;2024-03-17T01:18:05;100183.78;;;10.76;78.16
81005;BME280;70472;47.592;17.640;2024-03-17T01:18:37;100186.28;;;10.77;78.40
81005;BME280;70472;47.592;17.640;2024-03-17T01:19:08;100186.09;;;10.79;78.25
81005;BME280;70472;47.592;17.640;2024-03-17T01:19:40;100193.50;;;10.77;78.33
81005;BME280;70472;47.592;17.640;2024-03-17T01:20:11;100190.16;;;10.75;78.45
81005;BME280;70472;47.592;17.640;2024-03-17T01:20:42;100186.63;;;10.74;78.32
81005;BME280;70472;47.592;17.640;2024-03-17T01:21:13;100183.78;;;10.76;78.10
81005;BME280;70472;47.592;17.640;2024-03-17T01:21:45;100186.09;;;10.79;78.01
81005;BME280;70472;47.592;17.640;2024-03-17T01:22:17;100193.31;;;10.78;78.05
81005;BME280;70472;47.592;17.640;2024-03-17T01:22:48;100186.44;;;10.76;78.69
81005;BME280;70472;47.592;17.640;2024-03-17T01:23:19;100189.31;;;10.74;78.25
81005;BME280;70472;47.592;17.640;2024-03-17T01:23:50;100192.97;;;10.73;78.47
81005;BME280;70472;47.592;17.640;2024-03-17T01:24:22;100193.84;;;10.74;78.33
81005;BME280;70472;47.592;17.640;2024-03-17T01:24:53;100187.59;;;10.73;78.36
81005;BME280;70472;47.592;17.640;2024-03-17T01:25:25;100194.81;;;10.73;78.64
81005;BME280;70472;47.592;17.640;2024-03-17T01:25:56;100193.50;;;10.68;78.75
81005;BME280;70472;47.592;17.640;2024-03-17T01:26:27;100191.66;;;10.69;78.83
81005;BME280;70472;47.592;17.640;2024-03-17T01:26:59;100194.50;;;10.67;78.60
81005;BME280;70472;47.592;17.640;2024-03-17T01:27:30;100198.16;;;10.66;78.95
81005;BME280;70472;47.592;17.640;2024-03-17T01:28:04;100197.31;;;10.66;78.89
81005;BME280;70472;47.592;17.640;2024-03-17T01:28:35;100193.97;;;10.64;78.91
81005;BME280;70472;47.592;17.640;2024-03-17T01:29:06;100186.94;;;10.63;78.65
81005;BME280;70472;47.592;17.640;2024-03-17T01:29:38;100188.78;;;10.62;79.04
81005;BME280;70472;47.592;17.640;2024-03-17T01:30:11;100189.63;;;10.63;78.50
81005;BME280;70472;47.592;17.640;2024-03-17T01:30:42;100185.94;;;10.64;78.63
81005;BME280;70472;47.592;17.640;2024-03-17T01:31:13;100193.31;;;10.62;78.33
81005;BME280;70472;47.592;17.640;2024-03-17T01:31:45;100184.75;;;10.58;79.04
81005;BME280;70472;47.592;17.640;2024-03-17T01:32:16;100196.50;;;10.57;79.04
81005;BME280;70472;47.592;17.640;2024-03-17T01:32:48;100190.13;;;10.58;79.31
81005;BME280;70472;47.592;17.640;2024-03-17T01:33:19;100194.97;;;10.55;79.11
81005;BME280;70472;47.592;17.640;2024-03-17T01:33:50;100205.69;;;10.55;79.24
81005;BME280;70472;47.592;17.640;2024-03-17T01:34:22;100198.66;;;10.54;78.90
81005;BME280;70472;47.592;17.640;2024-03-17T01:34:53;100191.59;;;10.53;79.17
81005;BME280;70472;47.592;17.640;2024-03-17T01:35:26;100194.47;;;10.51;79.06
81005;BME280;70472;47.592;17.640;2024-03-17T01:35:57;100191.44;;;10.54;78.83
81005;BME280;70472;47.592;17.640;2024-03-17T01:36:28;100192.13;;;10.56;78.58
81005;BME280;70472;47.592;17.640;2024-03-17T01:37:00;100185.06;;;10.55;78.33
81005;BME280;70472;47.592;17.640;2024-03-17T01:37:31;100188.75;;;10.54;79.26
81005;BME280;70472;47.592;17.640;2024-03-17T01:38:03;100189.09;;;10.51;78.40
81005;BME280;70472;47.592;17.640;2024-03-17T01:38:35;100187.91;;;10.54;78.64
81005;BME280;70472;47.592;17.640;2024-03-17T01:39:06;100181.41;;;10.56;78.58
81005;BME280;70472;47.592;17.640;2024-03-17T01:39:38;100187.75;;;10.55;78.73
81005;BME280;70472;47.592;17.640;2024-03-17T01:40:10;100181.72;;;10.53;78.66
81005;BME280;70472;47.592;17.640;2024-03-17T01:40:42;100183.56;;;10.53;78.83
81005;BME280;70472;47.592;17.640;2024-03-17T01:41:13;100179.69;;;10.55;78.40
81005;BME280;70472;47.592;17.640;2024-03-17T01:41:44;100185.56;;;10.51;78.55
81005;BME280;70472;47.592;17.640;2024-03-17T01:42:16;100184.75;;;10.50;78.58
81005;BME280;70472;47.592;17.640;2024-03-17T01:42:47;100182.06;;;10.50;78.32
81005;BME280;70472;47.592;17.640;2024-03-17T01:43:19;100187.91;;;10.46;78.66
81005;BME280;70472;47.592;17.640;2024-03-17T01:43:50;100184.41;;;10.45;79.05
81005;BME280;70472;47.592;17.640;2024-03-17T01:44:27;100192.75;;;10.42;79.28
81005;BME280;70472;47.592;17.640;2024-03-17T01:44:58;100192.41;;;10.37;79.36
81005;BME280;70472;47.592;17.640;2024-03-17T01:45:32;100190.72;;;10.36;78.84
81005;BME280;70472;47.592;17.640;2024-03-17T01:46:04;100191.22;;;10.31;78.71
81005;BME280;70472;47.592;17.640;2024-03-17T01:46:35;100188.88;;;10.36;78.41
81005;BME280;70472;47.592;17.640;2024-03-17T01:47:07;100186.38;;;10.35;78.86
81005;BME280;70472;47.592;17.640;2024-03-17T01:47:39;100189.53;;;10.30;79.28
81005;BME280;70472;47.592;17.640;2024-03-17T01:48:16;100193.75;;;10.33;78.84
81005;BME280;70472;47.592;17.640;2024-03-17T01:48:48;100192.22;;;10.30;79.19
81005;BME280;70472;47.592;17.640;2024-03-17T01:49:21;100193.56;;;10.26;79.71
81005;BME280;70472;47.592;17.640;2024-03-17T01:49:53;100196.25;;;10.26;79.68
81005;BME280;70472;47.592;17.640;2024-03-17T01:50:35;100201.91;;;10.23;79.51
81005;BME280;70472;47.592;17.640;2024-03-17T01:51:10;100210.78;;;10.24;79.14
81005;BME280;70472;47.592;17.640;2024-03-17T01:51:42;100198.53;;;10.21;78.83
81005;BME280;70472;47.592;17.640;2024-03-17T01:52:17;100205.75;;;10.21;78.65
81005;BME280;70472;47.592;17.640;2024-03-17T01:52:51;100204.75;;;10.22;78.96
81005;BME280;70472;47.592;17.640;2024-03-17T01:53:25;100200.22;;;10.22;78.66
81005;BME280;70472;47.592;17.640;2024-03-17T01:53:57;100209.41;;;10.20;79.26
81005;BME280;70472;47.592;17.640;2024-03-17T01:54:29;100205.75;;;10.21;78.59
81005;BME280;70472;47.592;17.640;2024-03-17T01:55:02;100203.91;;;10.21;78.91
81005;BME280;70472;47.592;17.640;2024-03-17T01:55:38;100203.38;;;10.17;78.07
81005;BME280;70472;47.592;17.640;2024-03-17T01:56:12;100208.72;;;10.17;78.20
81005;BME280;70472;47.592;17.640;2024-03-17T01:56:45;100211.41;;;10.17;78.43
81005;BME280;70472;47.592;17.640;2024-03-17T01:57:16;100217.94;;;10.15;78.24
81005;BME280;70472;47.592;17.640;2024-03-17T01:57:50;100208.22;;;10.14;78.16
81005;BME280;70472;47.592;17.640;2024-03-17T01:58:25;100214.22;;;10.08;78.98
81005;BME280;70472;47.592;17.640;2024-03-17T01:58:58;100212.69;;;10.05;78.84
81005;BME280;70472;47.592;17.640;2024-03-17T01:59:29;100209.19;;;10.05;78.94
81005;BME280;70472;47.592;17.640;2024-03-17T02:00:01;100215.03;;;10.00;78.50
81005;BME280;70472;47.592;17.640;2024-03-17T02:00:40;100212.34;;;10.00;78.25
81005;BME280;70472;47.592;17.640;2024-03-17T02:01:12;100218.53;;;10.01;78.64
81005;BME280;70472;47.592;17.640;2024-03-17T02:01:43;100214.00;;;10.01;78.64
81005;BME280;70472;47.592;17.640;2024-03-17T02:02:14;100223.75;;;10.02;78.59
81005;BME280;70472;47.592;17.640;2024-03-17T02:02:46;100219.88;;;9.97;78.24
81005;BME280;70472;47.592;17.640;2024-03-17T02:03:17;100214.34;;;9.98;78.25
81005;BME280;70472;47.592;17.640;2024-03-17T02:03:48;100214.66;;;9.95;78.34
81005;BME280;70472;47.592;17.640;2024-03-17T02:04:20;100217.19;;;9.97;77.90
81005;BME280;70472;47.592;17.640;2024-03-17T02:04:51;100217.34;;;9.95;77.94
81005;BME280;70472;47.592;17.640;2024-03-17T02:05:23;100209.94;;;9.89;78.39
81005;BME280;70472;47.592;17.640;2024-03-17T02:05:54;100213.47;;;9.89;78.20
81005;BME280;70472;47.592;17.640;2024-03-17T02:06:25;100212.63;;;9.89;77.82
81005;BME280;70472;47.592;17.640;2024-03-17T02:06:57;100213.78;;;9.86;77.81
81005;BME280;70472;47.592;17.640;2024-03-17T02:07:30;100207.22;;;9.81;77.89
81005;BME280;70472;47.592;17.640;2024-03-17T02:08:04;100205.56;;;9.80;78.10
81005;BME280;70472;47.592;17.640;2024-03-17T02:08:53;100205.38;;;9.81;78.42
81005;BME280;70472;47.592;17.640;2024-03-17T02:09:25;100212.25;;;9.84;78.05
81005;BME280;70472;47.592;17.640;2024-03-17T02:09:57;100212.59;;;9.81;77.95
81005;BME280;70472;47.592;17.640;2024-03-17T02:10:28;100218.13;;;9.79;77.82
81005;BME280;70472;47.592;17.640;2024-03-17T02:11:00;100218.41;;;9.76;78.05
81005;BME280;70472;47.592;17.640;2024-03-17T02:11:33;100223.59;;;9.78;78.17
81005;BME280;70472;47.592;17.640;2024-03-17T02:12:04;100224.47;;;9.78;78.39
81005;BME280;70472;47.592;17.640;2024-03-17T02:12:37;100228.47;;;9.74;78.43
81005;BME280;70472;47.592;17.640;2024-03-17T02:13:09;100236.66;;;9.73;78.55
81005;BME280;70472;47.592;17.640;2024-03-17T02:13:42;100230.31;;;9.74;78.35
81005;BME280;70472;47.592;17.640;2024-03-17T02:14:14;100236.34;;;9.76;78.05
81005;BME280;70472;47.592;17.640;2024-03-17T02:14:45;100234.66;;;9.75;78.28
81005;BME280;70472;47.592;17.640;2024-03-17T02:15:17;100233.81;;;9.74;78.40
81005;BME280;70472;47.592;17.640;2024-03-17T02:15:48;100224.25;;;9.72;78.03
81005;BME280;70472;47.592;17.640;2024-03-17T02:16:20;100234.13;;;9.71;78.41
81005;BME280;70472;47.592;17.640;2024-03-17T02:16:52;100230.94;;;9.68;77.89
81005;BME280;70472;47.592;17.640;2024-03-17T02:17:23;100232.25;;;9.63;78.32
81005;BME280;70472;47.592;17.640;2024-03-17T02:17:54;100231.06;;;9.66;78.35
81005;BME280;70472;47.592;17.640;2024-03-17T02:18:26;100238.78;;;9.61;78.13
81005;BME280;70472;47.592;17.640;2024-03-17T02:18:58;100238.84;;;9.51;78.04
81005;BME280;70472;47.592;17.640;2024-03-17T02:19:29;100237.00;;;9.52;78.87
81005;BME280;70472;47.592;17.640;2024-03-17T02:20:00;100235.50;;;9.49;78.61
81005;BME280;70472;47.592;17.640;2024-03-17T02:20:32;100237.81;;;9.44;79.11
81005;BME280;70472;47.592;17.640;2024-03-17T02:21:04;100239.09;;;9.40;78.48
81005;BME280;70472;47.592;17.640;2024-03-17T02:21:36;100247.13;;;9.40;79.21
81005;BME280;70472;47.592;17.640;2024-03-17T02:22:16;100238.09;;;9.41;78.97
81005;BME280;70472;47.592;17.640;2024-03-17T02:22:47;100240.09;;;9.39;79.54
81005;BME280;70472;47.592;17.640;2024-03-17T02:23:19;100243.56;;;9.31;79.49
81005;BME280;70472;47.592;17.640;2024-03-17T02:23:51;100246.72;;;9.27;79.52
81005;BME280;70472;47.592;17.640;2024-03-17T02:24:23;100237.97;;;9.25;79.22
81005;BME280;70472;47.592;17.640;2024-03-17T02:24:54;100240.34;;;9.28;79.13
81005;BME280;70472;47.592;17.640;2024-03-17T02:25:25;100241.72;;;9.32;79.77
81005;BME280;70472;47.592;17.640;2024-03-17T02:25:59;100235.66;;;9.30;79.43
81005;BME280;70472;47.592;17.640;2024-03-17T02:26:30;100237.69;;;9.28;79.46
81005;BME280;70472;47.592;17.640;2024-03-17T02:27:02;100242.19;;;9.27;79.51
81005;BME280;70472;47.592;17.640;2024-03-17T02:27:34;100235.66;;;9.30;79.85
81005;BME280;70472;47.592;17.640;2024-03-17T02:28:05;100236.91;;;9.18;80.13
81005;BME280;70472;47.592;17.640;2024-03-17T02:28:42;100240.31;;;9.20;80.20
81005;BME280;70472;47.592;17.640;2024-03-17T02:29:13;100232.94;;;9.22;79.88
81005;BME280;70472;47.592;17.640;2024-03-17T02:29:44;100232.94;;;9.22;80.02
81005;BME280;70472;47.592;17.640;2024-03-17T02:30:16;100243.94;;;9.19;80.18
81005;BME280;70472;47.592;17.640;2024-03-17T02:30:47;100233.78;;;9.22;80.19
81005;BME280;70472;47.592;17.640;2024-03-17T02:31:18;100237.84;;;9.26;79.80
81005;BME280;70472;47.592;17.640;2024-03-17T02:31:50;100242.88;;;9.29;79.99
81005;BME280;70472;47.592;17.640;2024-03-17T02:32:21;100239.34;;;9.29;80.04
81005;BME280;70472;47.592;17.640;2024-03-17T02:32:54;100242.19;;;9.27;80.99
81005;BME280;70472;47.592;17.640;2024-03-17T02:33:25;100237.38;;;9.31;80.46
81005;BME280;70472;47.592;17.640;2024-03-17T02:33:57;100239.34;;;9.29;80.20
81005;BME280;70472;47.592;17.640;2024-03-17T02:34:28;100244.72;;;9.29;80.51
81005;BME280;70472;47.592;17.640;2024-03-17T02:35:00;100239.69;;;9.26;80.73
81005;BME280;70472;47.592;17.640;2024-03-17T02:35:31;100243.19;;;9.26;81.01
81005;BME280;70472;47.592;17.640;2024-03-17T02:36:06;100240.97;;;9.22;81.25
81005;BME280;70472;47.592;17.640;2024-03-17T02:36:38;100237.06;;;9.16;81.55
81005;BME280;70472;47.592;17.640;2024-03-17T02:37:09;100238.28;;;9.22;80.92
81005;BME280;70472;47.592;17.640;2024-03-17T02:37:41;100238.97;;;9.24;81.46
81005;BME280;70472;47.592;17.640;2024-03-17T02:38:16;100241.34;;;9.27;80.17
81005;BME280;70472;47.592;17.640;2024-03-17T02:38:49;100242.56;;;9.32;80.50
81005;BME280;70472;47.592;17.640;2024-03-17T02:39:20;100243.41;;;9.33;80.31
81005;BME280;70472;47.592;17.640;2024-03-17T02:39:51;100247.59;;;9.35;80.21
81005;BME280;70472;47.592;17.640;2024-03-17T02:40:23;100248.09;;;9.31;80.77
81005;BME280;70472;47.592;17.640;2024-03-17T02:40:54;100249.75;;;9.32;80.55
81005;BME280;70472;47.592;17.640;2024-03-17T02:41:26;100252.28;;;9.33;80.39
81005;BME280;70472;47.592;17.640;2024-03-17T02:41:58;100248.59;;;9.34;80.17
81005;BME280;70472;47.592;17.640;2024-03-17T02:42:29;100251.44;;;9.33;80.79
81005;BME280;70472;47.592;17.640;2024-03-17T02:43:00;100250.59;;;9.32;80.60
81005;BME280;70472;47.592;17.640;2024-03-17T02:43:32;100250.44;;;9.34;80.73
81005;BME280;70472;47.592;17.640;2024-03-17T02:44:03;100247.22;;;9.30;80.83
81005;BME280;70472;47.592;17.640;2024-03-17T02:44:37;100246.38;;;9.30;81.65
81005;BME280;70472;47.592;17.640;2024-03-17T02:45:08;100254.41;;;9.30;81.37